Memphis, Mississippi
Current Conditions -  °F | °C
As of 1:54 PM on Wednesday 28 Jan 2015 (Local Time) from KMEM Reporting Station
Few Clouds Few Clouds  
Wind Chill: 58°   Ceiling: Unl
Heat Index: 58°   Visibility: 10mi
Dew Point: 30°   Wind: 7mph
Humidity: 35%   Direction: 150°SSE
Pressure: 30.18"   Gusts: NA
Location:  34.9578°N, 90.1057°W
Report Text: KMEM 281954Z 15006KT 10SM FEW250 14/M01 A3018 RMK AO2 SLP220 T01441011 $
Loading
Personal Weather Stations






























Interactive Weather Map New forecast layout! Learn more

10-Day Weather Forecast

Advertisements
Track Severe Weather on mobile